Time;durP1;ratioP1;P1;durP2;ratioP2;P2;SDS_P1;SDS_P2;PMS_P1;PMS_P2;Temp;Humidity;BMP_temperature;BMP_pressure;BME280_temperature;BME280_humidity;BME280_pressure;Samples;Min_cycle;Max_cycle;Signal;HPM_P1;HPM_P2
2022/01/30 00:00:24;;;;;;;10.73;5.47;;;;;;;3.60;55.31;95056.06;4975913;28;20220;-76
2022/01/30 00:02:52;;;;;;;7.63;5.90;;;;;;;3.51;55.27;95042.22;4990894;28;20203;-73
2022/01/30 00:05:19;;;;;;;11.50;5.90;;;;;;;3.59;55.28;95053.63;4991311;28;20217;-74
2022/01/30 00:07:46;;;;;;;6.27;4.83;;;;;;;3.59;55.16;95054.44;4990969;28;20185;-71
2022/01/30 00:10:14;;;;;;;8.57;6.00;;;;;;;3.56;55.12;95047.00;4991213;28;20189;-71
2022/01/30 00:12:48;;;;;;;10.57;5.53;;;;;;;3.56;55.32;95057.13;4988819;28;20220;-72
2022/01/30 00:15:16;;;;;;;8.87;5.40;;;;;;;3.55;55.42;95052.97;4991584;28;20216;-73
2022/01/30 00:17:49;;;;;;;9.13;5.80;;;;;;;3.49;55.24;95038.94;4992751;28;20284;-70
2022/01/30 00:20:20;;;;;;;12.87;5.87;;;;;;;3.55;55.38;95042.88;4992598;28;20189;-73
2022/01/30 00:22:53;;;;;;;17.80;6.03;;;;;;;3.45;55.24;95021.50;5008898;28;20203;-70
2022/01/30 00:25:31;;;;;;;9.53;5.63;;;;;;;3.53;55.31;95035.34;5019021;28;20195;-75
2022/01/30 00:28:05;;;;;;;8.77;5.57;;;;;;;3.42;55.37;95004.81;5032055;28;20184;-74
2022/01/30 00:30:35;;;;;;;13.07;5.53;;;;;;;3.27;55.23;94982.94;5032490;28;20201;-72
2022/01/30 00:33:01;;;;;;;8.73;5.30;;;;;;;3.51;55.18;95021.19;5031643;28;20198;-71
2022/01/30 00:35:28;;;;;;;9.60;5.17;;;;;;;3.52;55.12;95021.09;5029417;28;20207;-74
2022/01/30 00:37:55;;;;;;;6.83;5.17;;;;;;;3.52;55.15;95015.22;5012406;28;20200;-71
2022/01/30 00:40:22;;;;;;;10.23;5.60;;;;;;;3.51;54.93;95024.53;5012444;28;20197;-70
2022/01/30 00:42:49;;;;;;;9.13;5.67;;;;;;;3.51;55.07;95014.41;5011870;28;20197;-74
2022/01/30 00:45:17;;;;;;;7.90;5.37;;;;;;;3.46;54.90;95006.28;5012424;28;20361;-71
2022/01/30 00:47:44;;;;;;;10.80;5.40;;;;;;;3.50;54.82;95017.03;5013175;28;20201;-74
2022/01/30 00:50:11;;;;;;;8.03;5.20;;;;;;;3.47;55.00;95007.09;5011803;28;20197;-72
2022/01/30 00:52:38;;;;;;;6.87;5.03;;;;;;;3.49;54.91;95006.09;5012015;28;20693;-71
2022/01/30 00:55:06;;;;;;;9.43;5.40;;;;;;;3.47;54.83;95010.44;5011646;28;20707;-74
2022/01/30 00:57:33;;;;;;;6.57;5.23;;;;;;;3.47;54.93;95004.56;5013103;28;20267;-71
2022/01/30 00:59:59;;;;;;;11.17;4.77;;;;;;;3.45;54.76;94993.72;5011753;28;20181;-76
2022/01/30 01:02:28;;;;;;;7.30;4.60;;;;;;;3.45;54.90;94996.22;5011826;28;20343;-72
2022/01/30 01:04:54;;;;;;;9.90;5.27;;;;;;;3.44;54.88;94987.84;5011535;28;20184;-71
2022/01/30 01:07:23;;;;;;;7.13;5.10;;;;;;;3.44;54.89;94985.31;5012740;28;20568;-71
2022/01/30 01:09:59;;;;;;;11.23;4.97;;;;;;;3.43;54.80;94977.81;5014012;28;20208;-74
2022/01/30 01:12:45;;;;;;;11.13;4.93;;;;;;;3.41;54.90;94972.88;5018909;28;20263;-72
2022/01/30 01:23:23;;;;;;;6.43;5.07;;;;;;;3.27;55.06;94950.88;5017979;28;20179;-73
2022/01/30 01:23:50;;;;;;;7.97;5.00;;;;;;;2.77;54.73;94867.88;5011252;28;20255;-73
2022/01/30 01:26:18;;;;;;;6.43;4.43;;;;;;;3.39;54.91;94956.16;5011627;28;20290;-72
2022/01/30 01:28:46;;;;;;;8.90;5.47;;;;;;;3.37;54.87;94950.34;5012400;28;20722;-72
2022/01/30 01:31:13;;;;;;;8.73;5.53;;;;;;;3.37;54.70;94947.81;5011443;28;20196;-70
2022/01/30 01:33:56;;;;;;;8.13;5.43;;;;;;;3.35;54.86;94939.53;5011230;28;20224;-73
2022/01/30 01:36:23;;;;;;;10.37;5.30;;;;;;;3.33;54.88;94944.69;5010973;28;20250;-71
2022/01/30 01:38:51;;;;;;;10.47;5.90;;;;;;;3.33;54.92;94938.81;5019291;28;20223;-76
2022/01/30 01:41:20;;;;;;;8.80;5.50;;;;;;;3.30;54.67;94913.72;5031022;28;20214;-75
2022/01/30 01:43:48;;;;;;;11.57;6.27;;;;;;;3.30;54.67;94914.53;5030983;28;20187;-74
2022/01/30 01:46:19;;;;;;;9.37;6.10;;;;;;;3.30;54.86;94911.19;5030342;28;20230;-74
2022/01/30 01:48:50;;;;;;;14.03;6.00;;;;;;;3.27;55.05;94907.09;5030005;28;20666;-72
2022/01/30 01:51:19;;;;;;;9.50;5.30;;;;;;;3.25;54.77;94903.88;5030767;28;20639;-72
2022/01/30 01:53:48;;;;;;;9.87;5.53;;;;;;;3.18;54.87;94902.59;5030640;28;20227;-73
2022/01/30 01:56:15;;;;;;;12.03;5.30;;;;;;;3.23;54.98;94908.19;5030666;28;20231;-74
2022/01/30 01:58:43;;;;;;;10.77;6.50;;;;;;;3.11;54.76;94886.16;5031027;28;20246;-73
2022/01/30 02:01:10;;;;;;;8.77;5.53;;;;;;;3.15;54.90;94890.13;5029815;28;20188;-74
2022/01/30 02:03:38;;;;;;;14.17;5.97;;;;;;;3.20;54.83;94896.56;5030214;28;20590;-73
2022/01/30 02:06:10;;;;;;;9.73;5.23;;;;;;;3.14;55.00;94883.44;5030600;28;20195;-74
2022/01/30 02:08:40;;;;;;;9.47;5.83;;;;;;;3.13;54.80;94881.84;5031025;28;20214;-74
2022/01/30 02:11:11;;;;;;;14.70;6.47;;;;;;;3.13;54.72;94890.22;5030262;28;20313;-72
2022/01/30 02:24:57;;;;;;;15.93;7.67;;;;;;;3.01;54.93;94893.44;5030200;28;20722;-72
2022/01/30 02:27:26;;;;;;;17.33;6.93;;;;;;;2.97;54.96;94892.78;5030482;28;20578;-72
2022/01/30 02:29:53;;;;;;;17.97;7.17;;;;;;;3.04;55.08;94903.38;5029876;28;20254;-73
2022/01/30 02:32:20;;;;;;;13.07;6.70;;;;;;;3.01;55.11;94891.72;5029513;28;20188;-70
2022/01/30 02:34:48;;;;;;;14.10;6.70;;;;;;;3.02;55.04;94879.91;5030249;28;20216;-71
2022/01/30 02:37:16;;;;;;;16.00;6.60;;;;;;;3.01;54.87;94879.09;5029639;28;20192;-71
2022/01/30 02:39:43;;;;;;;9.87;6.67;;;;;;;2.99;55.14;94873.34;5030525;28;20262;-73
2022/01/30 02:42:17;;;;;;;14.37;7.77;;;;;;;2.97;55.11;94859.97;5029714;28;20624;-71
2022/01/30 02:44:49;;;;;;;11.57;7.47;;;;;;;2.97;55.09;94854.09;5030210;28;20194;-72
2022/01/30 02:47:25;;;;;;;10.40;7.10;;;;;;;2.95;54.95;94843.28;5029970;28;20184;-71
2022/01/30 02:50:11;;;;;;;13.33;6.97;;;;;;;2.93;54.94;94845.06;5029786;28;20219;-71
2022/01/30 02:52:41;;;;;;;10.80;6.97;;;;;;;2.92;55.01;94844.25;5029679;28;20230;-72
2022/01/30 02:55:10;;;;;;;11.80;7.40;;;;;;;2.89;55.06;94838.56;5034368;28;20318;-73
2022/01/30 02:57:38;;;;;;;9.13;6.90;;;;;;;2.88;55.34;94842.00;5037879;28;20191;-72
2022/01/30 03:00:08;;;;;;;12.60;7.67;;;;;;;2.90;55.23;94832.63;5033894;28;20184;-71
2022/01/30 03:02:35;;;;;;;12.13;6.23;;;;;;;2.89;55.08;94836.03;5034076;28;20202;-72
2022/01/30 03:05:02;;;;;;;14.40;7.43;;;;;;;2.82;55.11;94825.50;5033079;28;20678;-71
2022/01/30 03:07:29;;;;;;;12.60;7.53;;;;;;;2.84;55.11;94836.31;5033669;28;20681;-71
2022/01/30 03:09:56;;;;;;;13.13;7.33;;;;;;;2.84;54.88;94830.44;5033779;28;20180;-73
2022/01/30 03:12:23;;;;;;;15.33;7.47;;;;;;;2.83;55.14;94828.84;5033227;28;20206;-71
2022/01/30 03:14:51;;;;;;;13.10;7.23;;;;;;;2.81;55.14;94831.44;5032896;28;20277;-73
2022/01/30 03:17:18;;;;;;;15.13;8.33;;;;;;;2.79;55.10;94832.44;5033214;28;20650;-73
2022/01/30 03:19:45;;;;;;;17.00;9.40;;;;;;;2.79;55.16;94840.81;5033374;28;20192;-72
2022/01/30 03:22:12;;;;;;;16.97;8.23;;;;;;;2.71;55.26;94830.34;5033297;28;20250;-73
2022/01/30 03:24:39;;;;;;;10.77;7.77;;;;;;;2.74;55.19;94832.69;5033275;28;20199;-72
2022/01/30 03:27:08;;;;;;;13.60;8.03;;;;;;;2.74;55.44;94842.78;5033190;28;20721;-73
2022/01/30 03:29:37;;;;;;;15.70;7.60;;;;;;;2.75;55.33;94836.84;5033685;28;20223;-76
2022/01/30 03:32:07;;;;;;;17.43;8.20;;;;;;;2.73;55.19;94831.06;5033415;28;20278;-73
2022/01/30 03:34:34;;;;;;;15.00;8.77;;;;;;;2.73;55.21;94847.03;5033451;28;20253;-71
2022/01/30 03:37:01;;;;;;;13.57;8.40;;;;;;;2.59;55.13;94831.84;5032968;28;20549;-74
2022/01/30 03:39:28;;;;;;;14.83;8.33;;;;;;;2.70;55.21;94844.66;5033170;28;20651;-72
2022/01/30 03:41:55;;;;;;;15.57;8.60;;;;;;;2.69;55.24;94844.78;5033365;28;20218;-74
2022/01/30 03:44:22;;;;;;;18.73;8.73;;;;;;;2.68;55.33;94854.06;5033075;28;20206;-76
2022/01/30 03:46:48;;;;;;;13.87;8.30;;;;;;;2.66;55.33;94847.47;5033166;28;20188;-72
2022/01/30 03:49:16;;;;;;;18.17;8.43;;;;;;;2.53;55.39;94826.31;5032756;28;20250;-76
2022/01/30 03:51:43;;;;;;;19.53;9.60;;;;;;;2.64;55.60;94847.56;5033083;28;20192;-73
2022/01/30 03:54:10;;;;;;;14.93;8.10;;;;;;;2.63;55.49;94850.94;5031273;28;20695;-74
2022/01/30 03:56:37;;;;;;;16.03;7.87;;;;;;;2.63;55.59;94847.63;5032594;28;20202;-74
2022/01/30 03:59:04;;;;;;;15.80;8.97;;;;;;;2.62;55.63;94843.47;5032473;28;20254;-75
2022/01/30 04:01:30;;;;;;;14.40;8.87;;;;;;;2.61;55.51;94831.75;5032702;28;20191;-76
2022/01/30 04:03:58;;;;;;;17.47;8.20;;;;;;;2.37;55.56;94803.66;5032641;28;20202;-72
2022/01/30 04:06:27;;;;;;;16.83;8.40;;;;;;;2.57;55.70;94815.97;5040160;28;20282;-75
2022/01/30 04:08:54;;;;;;;13.33;8.27;;;;;;;2.55;55.81;94814.41;5040651;28;20199;-75
2022/01/30 04:11:22;;;;;;;12.83;7.67;;;;;;;2.54;55.72;94815.31;5032768;28;20195;-75
2022/01/30 04:13:49;;;;;;;15.63;8.70;;;;;;;2.50;55.92;94807.09;5032064;28;20184;-71
2022/01/30 04:16:16;;;;;;;18.87;8.43;;;;;;;2.50;55.82;94813.00;5032422;28;20231;-74
2022/01/30 04:18:43;;;;;;;12.90;8.33;;;;;;;2.23;55.71;94766.56;5032372;28;20264;-71
2022/01/30 04:21:10;;;;;;;13.63;8.27;;;;;;;2.46;55.88;94788.00;5032815;28;20184;-72
2022/01/30 04:23:39;;;;;;;13.83;7.87;;;;;;;2.46;55.85;94781.25;5032080;28;20203;-74
2022/01/30 04:26:06;;;;;;;10.23;7.80;;;;;;;2.46;55.69;94777.88;5032785;28;20187;-75
2022/01/30 04:28:33;;;;;;;11.23;7.53;;;;;;;2.44;55.83;94774.66;5032317;28;20227;-76
2022/01/30 04:31:01;;;;;;;11.50;7.77;;;;;;;2.39;55.89;94762.31;5032114;28;20192;-73
2022/01/30 04:33:28;;;;;;;12.53;7.63;;;;;;;2.38;55.82;94750.59;5031986;28;20579;-72
2022/01/30 04:35:56;;;;;;;9.33;6.83;;;;;;;2.40;55.71;94753.81;5032358;28;20212;-74
2022/01/30 04:38:29;;;;;;;11.53;7.50;;;;;;;2.40;55.81;94743.72;5032081;28;20188;-76
2022/01/30 04:41:22;;;;;;;11.67;7.43;;;;;;;2.39;55.69;94743.81;5032366;28;20192;-71
2022/01/30 04:57:45;;;;;;;10.77;7.63;;;;;;;2.26;55.79;94757.13;5031477;28;20242;-74
2022/01/30 05:00:27;;;;;;;13.50;8.27;;;;;;;2.37;55.96;94784.28;5032081;28;20270;-73
2022/01/30 05:03:02;;;;;;;16.97;8.57;;;;;;;2.30;55.95;94779.69;5031645;28;20638;-75
2022/01/30 05:08:16;;;;;;;11.53;8.00;;;;;;;2.38;56.09;94777.53;4989764;28;20238;-71
2022/01/30 05:10:43;;;;;;;12.03;8.13;;;;;;;2.39;56.18;94759.78;4989543;28;20197;-76
2022/01/30 05:13:16;;;;;;;13.00;7.80;;;;;;;2.41;56.25;94736.97;4989789;28;20193;-71
2022/01/30 05:15:44;;;;;;;10.87;7.43;;;;;;;2.43;56.20;94723.38;4989179;28;20228;-76
2022/01/30 05:18:19;;;;;;;12.10;8.13;;;;;;;2.47;56.15;94708.88;4991868;28;20181;-74
2022/01/30 05:20:46;;;;;;;13.37;8.43;;;;;;;2.44;55.93;94704.81;4995488;28;20219;-73
2022/01/30 05:23:13;;;;;;;10.40;8.10;;;;;;;2.50;55.64;94698.56;4991770;28;20231;-75
2022/01/30 05:25:41;;;;;;;12.87;8.40;;;;;;;2.53;55.63;94682.47;4989364;28;20197;-71
2022/01/30 05:28:08;;;;;;;12.70;7.73;;;;;;;2.59;55.73;94677.88;4988897;28;20301;-77
2022/01/30 05:30:37;;;;;;;13.27;7.90;;;;;;;2.61;55.47;94665.97;4989651;28;20189;-73
2022/01/30 05:33:05;;;;;;;14.27;7.30;;;;;;;2.48;55.31;94657.50;4989263;28;20193;-74
2022/01/30 05:35:33;;;;;;;11.03;8.17;;;;;;;2.67;55.51;94692.56;4989477;28;20236;-72
2022/01/30 05:38:00;;;;;;;11.70;7.63;;;;;;;2.66;55.38;94694.25;4988825;28;20199;-72
2022/01/30 05:40:27;;;;;;;11.83;7.60;;;;;;;2.49;55.24;94659.91;4989390;28;20193;-74
2022/01/30 05:42:54;;;;;;;11.27;7.70;;;;;;;2.80;55.08;94718.69;4989070;28;20185;-71
2022/01/30 05:45:29;;;;;;;11.17;8.17;;;;;;;2.83;55.15;94727.81;5011144;28;20202;-74
2022/01/30 05:48:01;;;;;;;13.87;7.57;;;;;;;2.87;55.09;94752.81;5030442;28;20801;-73
2022/01/30 05:50:29;;;;;;;13.97;7.90;;;;;;;2.93;55.28;94754.94;5030514;28;20207;-74
2022/01/30 05:52:55;;;;;;;11.60;7.63;;;;;;;2.96;55.03;94739.63;5031526;28;20663;-71
2022/01/30 05:55:22;;;;;;;10.87;7.60;;;;;;;3.05;55.06;94735.75;5031996;28;20234;-74
2022/01/30 05:57:49;;;;;;;12.20;7.60;;;;;;;3.08;54.96;94728.00;5032196;28;20192;-76
2022/01/30 06:00:17;;;;;;;11.40;7.47;;;;;;;3.16;55.03;94725.00;5030604;28;20207;-74
2022/01/30 06:02:45;;;;;;;16.20;8.10;;;;;;;3.20;55.12;94716.34;5030319;28;20207;-74
2022/01/30 06:05:16;;;;;;;13.20;8.37;;;;;;;3.25;54.91;94732.03;5030224;28;20663;-74
2022/01/30 06:07:49;;;;;;;11.90;7.57;;;;;;;3.29;54.89;94705.69;5030952;28;20678;-74
2022/01/30 06:10:16;;;;;;;17.43;8.37;;;;;;;3.32;54.64;94699.59;5030371;28;20193;-72
2022/01/30 06:12:43;;;;;;;12.17;7.73;;;;;;;3.11;54.91;94658.78;5030753;28;20192;-75
2022/01/30 06:15:10;;;;;;;12.87;8.37;;;;;;;3.35;54.69;94674.16;5030237;28;20230;-75
2022/01/30 06:17:37;;;;;;;11.93;7.90;;;;;;;3.41;54.51;94681.34;5029446;28;20195;-74
2022/01/30 06:20:05;;;;;;;10.40;7.63;;;;;;;3.42;54.50;94650.13;5030227;28;20214;-75
2022/01/30 06:22:33;;;;;;;14.53;8.73;;;;;;;3.43;54.30;94654.28;5030201;28;20183;-71
2022/01/30 06:25:00;;;;;;;11.50;7.57;;;;;;;3.47;54.20;94646.41;5030317;28;20218;-72
2022/01/30 06:27:27;;;;;;;15.83;8.70;;;;;;;3.48;54.03;94658.13;5029780;28;20218;-71
2022/01/30 06:29:54;;;;;;;12.13;8.13;;;;;;;3.48;54.15;94658.13;5030033;28;20238;-74
2022/01/30 06:32:21;;;;;;;13.67;9.23;;;;;;;3.53;53.90;94660.38;5029692;28;20192;-76
2022/01/30 06:34:47;;;;;;;14.90;8.77;;;;;;;3.53;54.02;94653.59;5029996;28;20192;-77
2022/01/30 06:37:14;;;;;;;12.57;7.93;;;;;;;3.56;53.60;94650.06;5030028;28;20192;-74
2022/01/30 06:39:42;;;;;;;12.27;8.37;;;;;;;3.60;53.83;94648.16;5029601;28;20188;-74
2022/01/30 06:42:09;;;;;;;10.70;7.90;;;;;;;3.63;53.51;94660.63;5030248;28;20277;-73
2022/01/30 06:44:37;;;;;;;13.53;8.57;;;;;;;3.66;53.63;94661.22;5030078;28;20196;-77
2022/01/30 06:47:05;;;;;;;11.30;7.80;;;;;;;3.67;53.56;94682.25;5034970;28;20199;-76
2022/01/30 06:49:32;;;;;;;14.03;8.23;;;;;;;3.55;53.65;94670.41;5036235;28;20191;-77
2022/01/30 06:51:59;;;;;;;12.13;7.67;;;;;;;3.80;53.46;94705.06;5030698;28;20194;-74
2022/01/30 06:54:25;;;;;;;15.50;8.40;;;;;;;3.84;53.57;94701.41;5037306;28;20596;-74
2022/01/30 06:56:54;;;;;;;13.33;8.70;;;;;;;3.89;53.55;94690.13;5036424;28;20230;-74
2022/01/30 06:59:20;;;;;;;13.77;8.47;;;;;;;3.92;53.36;94674.72;5029292;28;20199;-74
2022/01/30 07:01:48;;;;;;;13.20;8.27;;;;;;;3.97;53.41;94656.72;5029883;28;20578;-75
2022/01/30 07:04:15;;;;;;;12.80;7.80;;;;;;;4.01;53.22;94655.63;5029913;28;20702;-76
2022/01/30 07:06:42;;;;;;;11.87;7.80;;;;;;;4.14;52.94;94661.50;5028519;28;20195;-76
2022/01/30 07:09:09;;;;;;;13.67;7.97;;;;;;;4.18;52.72;94650.28;5030577;28;20199;-74
2022/01/30 07:11:36;;;;;;;13.73;7.90;;;;;;;4.31;52.82;94652.81;5030213;28;20664;-74
2022/01/30 07:14:04;;;;;;;11.87;7.67;;;;;;;4.39;52.68;94657.38;5030452;28;20191;-79
2022/01/30 07:16:31;;;;;;;11.50;7.50;;;;;;;4.25;52.72;94635.50;5030401;28;20219;-75
2022/01/30 07:18:58;;;;;;;9.70;7.40;;;;;;;4.50;52.56;94665.09;5030114;28;20188;-77
2022/01/30 07:21:25;;;;;;;12.70;7.67;;;;;;;4.55;52.27;94657.19;5029212;28;20211;-78
2022/01/30 07:23:52;;;;;;;15.70;8.20;;;;;;;4.60;52.07;94662.75;5030279;28;20275;-76
2022/01/30 07:26:18;;;;;;;14.77;8.30;;;;;;;4.71;51.98;94668.72;5029554;28;20547;-75
2022/01/30 07:28:45;;;;;;;13.73;9.03;;;;;;;4.87;51.66;94678.63;5029981;28;20224;-76
2022/01/30 07:31:13;;;;;;;14.87;8.90;;;;;;;5.03;51.47;94675.88;5029106;28;20188;-74
2022/01/30 07:33:40;;;;;;;9.30;7.60;;;;;;;5.21;51.20;94682.19;5029536;28;20199;-77
2022/01/30 07:36:08;;;;;;;13.93;8.73;;;;;;;5.35;50.99;94680.44;5030159;28;20223;-75
2022/01/30 07:38:37;;;;;;;12.47;8.23;;;;;;;5.48;50.81;94686.28;5030241;28;20195;-73
2022/01/30 07:41:03;;;;;;;14.93;8.80;;;;;;;5.60;50.73;94687.16;5030154;28;20617;-76
2022/01/30 07:43:31;;;;;;;14.67;8.93;;;;;;;5.70;50.51;94696.56;5029882;28;20867;-75
2022/01/30 07:45:57;;;;;;;12.67;7.80;;;;;;;5.83;50.50;94693.13;5035981;28;20235;-75
2022/01/30 07:48:26;;;;;;;10.63;8.30;;;;;;;5.93;50.20;94679.72;5037124;28;20250;-74
2022/01/30 07:50:52;;;;;;;13.53;8.80;;;;;;;6.03;49.89;94677.31;5035109;28;20192;-76
2022/01/30 07:53:19;;;;;;;10.40;8.37;;;;;;;6.14;49.84;94682.44;5033166;28;20187;-75
2022/01/30 07:55:46;;;;;;;14.27;8.70;;;;;;;6.34;49.49;94677.63;5033556;28;20231;-78
2022/01/30 07:58:13;;;;;;;17.47;9.20;;;;;;;6.36;49.09;94646.13;5033149;28;20574;-76
2022/01/30 08:00:40;;;;;;;11.63;9.10;;;;;;;6.66;48.89;94663.38;5033245;28;20279;-75
2022/01/30 08:03:07;;;;;;;15.40;9.37;;;;;;;6.57;48.82;94627.69;5032718;28;20191;-74
2022/01/30 08:05:35;;;;;;;15.60;9.10;;;;;;;6.76;48.58;94651.56;5032317;28;20196;-77
2022/01/30 08:08:02;;;;;;;15.27;9.03;;;;;;;6.88;48.42;94638.88;5033094;28;20675;-73
2022/01/30 08:10:29;;;;;;;18.07;9.20;;;;;;;7.18;47.77;94631.44;5033007;28;20928;-77
2022/01/30 08:12:55;;;;;;;14.20;9.03;;;;;;;7.45;47.52;94620.03;5033111;28;20632;-74
2022/01/30 08:15:22;;;;;;;12.77;8.50;;;;;;;7.66;46.86;94615.81;5032222;28;20209;-75
2022/01/30 08:17:49;;;;;;;13.83;9.43;;;;;;;7.99;46.58;94619.94;5033024;28;20711;-76
2022/01/30 08:20:16;;;;;;;18.07;9.17;;;;;;;8.44;45.57;94624.78;5032175;28;20203;-72
2022/01/30 08:22:48;;;;;;;14.03;9.37;;;;;;;8.56;45.65;94635.72;5032824;28;20191;-76
2022/01/30 08:25:16;;;;;;;14.93;9.43;;;;;;;8.61;45.28;94637.88;5031790;28;20191;-73
2022/01/30 08:27:43;;;;;;;18.10;9.67;;;;;;;8.60;45.22;94637.09;5031173;28;20626;-78
2022/01/30 08:30:10;;;;;;;16.17;9.53;;;;;;;8.45;45.11;94620.50;5032744;28;20188;-74
2022/01/30 08:32:41;;;;;;;13.47;9.20;;;;;;;8.50;45.38;94637.00;5032597;28;20191;-74
2022/01/30 08:35:09;;;;;;;11.97;8.70;;;;;;;8.52;45.25;94645.34;5031578;28;20192;-75
2022/01/30 08:37:36;;;;;;;12.53;9.37;;;;;;;8.58;45.16;94641.47;5032543;28;20195;-78
2022/01/30 08:40:06;;;;;;;15.73;9.10;;;;;;;8.63;44.83;94624.06;5032507;28;20275;-74
2022/01/30 08:42:33;;;;;;;14.33;9.13;;;;;;;8.74;44.53;94629.09;5032142;28;20574;-76
2022/01/30 08:45:00;;;;;;;13.03;8.73;;;;;;;8.86;44.52;94623.91;5032135;28;20214;-74
2022/01/30 08:47:27;;;;;;;15.73;9.90;;;;;;;8.98;44.00;94630.50;5031910;28;20188;-76
2022/01/30 08:49:54;;;;;;;13.47;9.93;;;;;;;9.07;44.06;94644.22;5033339;28;20207;-76
2022/01/30 08:52:21;;;;;;;13.80;8.83;;;;;;;9.06;44.12;94640.88;5032554;28;20199;-73
2022/01/30 08:54:49;;;;;;;15.23;10.00;;;;;;;9.07;43.99;94624.66;5033274;28;20180;-76
2022/01/30 08:57:18;;;;;;;14.33;9.03;;;;;;;8.79;43.79;94578.50;5033038;28;20203;-76
2022/01/30 08:59:48;;;;;;;14.63;8.93;;;;;;;9.13;43.72;94630.97;5034443;28;20191;-77
2022/01/30 09:02:15;;;;;;;13.17;8.63;;;;;;;9.20;43.43;94639.72;5032303;28;20191;-74
2022/01/30 09:04:42;;;;;;;21.73;11.20;;;;;;;9.29;43.15;94642.28;5031726;28;20194;-76
2022/01/30 09:07:09;;;;;;;13.20;8.90;;;;;;;9.37;43.09;94651.00;5034092;28;20352;-77
2022/01/30 09:09:36;;;;;;;15.20;8.57;;;;;;;9.46;42.76;94645.94;5043027;28;20180;-74
2022/01/30 09:12:03;;;;;;;13.93;9.80;;;;;;;9.61;42.69;94636.16;5042484;28;20196;-74
2022/01/30 09:14:32;;;;;;;15.20;10.13;;;;;;;9.78;42.50;94637.25;5041389;28;20187;-71
2022/01/30 09:16:59;;;;;;;13.43;9.87;;;;;;;9.92;42.28;94639.38;5043760;28;20703;-71
2022/01/30 09:19:25;;;;;;;16.73;9.43;;;;;;;10.02;42.12;94644.50;5039841;28;20199;-72
2022/01/30 09:21:52;;;;;;;16.77;9.93;;;;;;;10.01;42.05;94637.75;5038806;28;20187;-72
2022/01/30 09:24:19;;;;;;;16.03;10.47;;;;;;;10.07;41.91;94642.34;5037126;28;20686;-71
2022/01/30 09:26:46;;;;;;;17.73;10.47;;;;;;;10.07;41.36;94633.88;5031690;28;20195;-72
2022/01/30 09:29:13;;;;;;;13.27;9.73;;;;;;;10.09;41.75;94631.97;5031758;28;20219;-72
2022/01/30 09:31:41;;;;;;;14.03;10.13;;;;;;;10.05;41.65;94627.13;5034239;28;20195;-71
2022/01/30 09:34:08;;;;;;;17.77;9.30;;;;;;;10.01;41.80;94613.00;5031203;28;20196;-71
2022/01/30 09:36:35;;;;;;;14.97;9.33;;;;;;;9.95;41.87;94594.88;5030892;28;20227;-70
2022/01/30 09:39:02;;;;;;;15.10;9.97;;;;;;;9.72;41.79;94556.06;5031145;28;20192;-72
2022/01/30 09:41:30;;;;;;;14.87;9.60;;;;;;;9.82;41.60;94572.19;5038113;28;20580;-70
2022/01/30 09:44:00;;;;;;;16.13;9.77;;;;;;;9.76;41.89;94565.06;5037410;28;20196;-72
2022/01/30 09:46:29;;;;;;;16.40;9.93;;;;;;;9.69;41.75;94561.44;5031946;28;20226;-72
2022/01/30 09:48:59;;;;;;;15.73;9.87;;;;;;;9.62;41.81;94556.06;5032059;28;20195;-70
2022/01/30 09:51:26;;;;;;;17.43;10.93;;;;;;;9.57;41.94;94547.19;5031382;28;20191;-73
2022/01/30 09:53:53;;;;;;;20.37;10.87;;;;;;;9.52;41.84;94539.94;5032101;28;20195;-72
2022/01/30 09:56:20;;;;;;;13.50;9.60;;;;;;;9.47;41.88;94526.78;5031349;28;20223;-71
2022/01/30 09:58:47;;;;;;;18.37;9.73;;;;;;;9.47;42.00;94535.25;5031226;28;20191;-71
2022/01/30 10:01:13;;;;;;;19.87;10.70;;;;;;;9.43;41.88;94521.16;5030909;28;20218;-74
2022/01/30 10:03:40;;;;;;;17.17;10.00;;;;;;;9.41;42.09;94515.38;5031022;28;20211;-76
2022/01/30 10:06:13;;;;;;;16.07;10.63;;;;;;;9.40;42.11;94515.50;5031093;28;20203;-76
2022/01/30 10:08:44;;;;;;;16.93;10.27;;;;;;;9.41;42.06;94509.44;5031348;28;20279;-76
2022/01/30 10:11:27;;;;;;;15.60;9.97;;;;;;;9.42;42.12;94506.78;5030735;28;20184;-77
2022/01/30 10:14:08;;;;;;;14.57;9.80;;;;;;;9.41;42.00;94496.69;5030808;28;20195;-74
2022/01/30 10:16:38;;;;;;;14.93;9.50;;;;;;;9.45;41.97;94501.38;5030164;28;20667;-75
2022/01/30 10:19:09;;;;;;;18.03;9.53;;;;;;;9.49;41.99;94509.59;5031619;28;20203;-77
2022/01/30 10:21:38;;;;;;;19.70;10.43;;;;;;;9.53;41.94;94513.47;5029894;28;20822;-75
2022/01/30 10:24:19;;;;;;;17.33;9.67;;;;;;;9.55;41.91;94522.63;5030311;28;20206;-75
2022/01/30 10:26:46;;;;;;;22.10;10.03;;;;;;;9.51;42.08;94523.84;5030620;28;20202;-73
2022/01/30 10:29:22;;;;;;;15.97;9.53;;;;;;;9.48;42.03;94503.69;5029995;28;20231;-72
2022/01/30 10:32:00;;;;;;;15.80;10.30;;;;;;;9.73;41.78;94522.72;5030247;28;20253;-73
2022/01/30 10:34:27;;;;;;;22.03;9.70;;;;;;;9.79;42.05;94503.50;5030101;28;20249;-71
2022/01/30 10:37:18;;;;;;;15.53;9.50;;;;;;;9.84;42.09;94497.97;5031205;28;20272;-75
2022/01/30 10:39:57;;;;;;;18.47;9.93;;;;;;;9.90;41.86;94503.34;5030654;28;20640;-74
2022/01/30 10:42:45;;;;;;;13.30;9.70;;;;;;;9.97;41.67;94501.88;5029892;28;20184;-73
2022/01/30 10:45:15;;;;;;;16.83;9.80;;;;;;;9.98;41.44;94482.22;4949452;29;20209;-73
2022/01/30 10:47:43;;;;;;;16.10;9.93;;;;;;;9.92;41.69;94452.91;4949698;29;20202;-74
2022/01/30 10:50:16;;;;;;;13.50;9.17;;;;;;;10.08;41.43;94454.09;4949904;29;20194;-75
2022/01/30 10:52:59;;;;;;;14.57;8.77;;;;;;;10.12;41.34;94445.19;4949483;29;20660;-76
2022/01/30 10:55:39;;;;;;;15.80;8.83;;;;;;;10.15;41.37;94445.72;4949265;29;20572;-73
2022/01/30 10:58:10;;;;;;;15.50;9.20;;;;;;;10.18;41.27;94442.06;4950031;29;20214;-72
2022/01/30 11:00:39;;;;;;;15.07;8.90;;;;;;;10.22;41.25;94443.41;4949163;29;20198;-71
2022/01/30 11:03:06;;;;;;;20.67;10.23;;;;;;;10.24;41.40;94442.34;4949515;29;20198;-76
2022/01/30 11:05:59;;;;;;;18.13;10.33;;;;;;;10.29;41.17;94442.72;4948529;29;20709;-73
2022/01/30 11:08:30;;;;;;;15.83;8.97;;;;;;;10.36;41.19;94440.38;4949437;29;20206;-74
2022/01/30 11:11:11;;;;;;;19.77;9.50;;;;;;;10.42;41.04;94429.59;4949239;29;20242;-75
2022/01/30 11:13:58;;;;;;;19.43;9.73;;;;;;;10.49;40.96;94402.53;4949077;29;20189;-76
2022/01/30 11:19:10;;;;;;;16.00;10.10;;;;;;;10.44;41.10;94388.56;4951519;28;20209;-76
2022/01/30 11:21:39;;;;;;;18.07;9.53;;;;;;;10.49;41.07;94388.91;4973689;28;20191;-73
2022/01/30 11:24:10;;;;;;;16.53;9.93;;;;;;;10.56;40.84;94384.84;5033284;28;20195;-72
2022/01/30 11:26:37;;;;;;;17.30;10.07;;;;;;;10.65;40.78;94398.50;5032609;28;20242;-74
2022/01/30 11:29:04;;;;;;;15.50;9.20;;;;;;;10.73;40.90;94396.84;5032872;28;20639;-74
2022/01/30 11:31:31;;;;;;;17.17;9.50;;;;;;;10.91;40.80;94404.50;5033141;28;20206;-73
2022/01/30 11:33:59;;;;;;;15.40;9.03;;;;;;;11.03;40.63;94402.53;5032945;28;20202;-71
2022/01/30 11:36:26;;;;;;;20.40;10.70;;;;;;;11.11;40.57;94402.59;5032538;28;20211;-73
2022/01/30 11:38:54;;;;;;;15.43;9.50;;;;;;;11.00;40.45;94367.00;5032849;28;20195;-74
2022/01/30 11:41:23;;;;;;;14.03;9.60;;;;;;;11.01;40.56;94366.03;5033055;28;20195;-74
2022/01/30 11:44:29;;;;;;;16.70;10.43;;;;;;;11.33;40.58;94385.16;5032902;28;20200;-76
2022/01/30 11:47:21;;;;;;;19.87;10.37;;;;;;;11.47;40.42;94374.38;5032670;28;20191;-76
2022/01/30 11:50:07;;;;;;;19.60;10.43;;;;;;;11.62;40.16;94367.75;5033392;28;20202;-77
2022/01/30 11:53:01;;;;;;;20.70;10.57;;;;;;;11.82;40.30;94365.75;5032632;28;20195;-78
2022/01/30 11:55:43;;;;;;;20.80;10.03;;;;;;;11.89;40.16;94361.66;5033691;28;20192;-74
2022/01/30 11:58:42;;;;;;;18.53;10.70;;;;;;;11.93;39.97;94354.47;5032673;28;20208;-79
2022/01/30 12:01:34;;;;;;;16.40;10.80;;;;;;;11.94;39.91;94346.63;5032371;28;20188;-77
2022/01/30 12:04:03;;;;;;;18.83;10.97;;;;;;;12.04;39.71;94349.06;5033048;28;20261;-78
2022/01/30 12:06:35;;;;;;;18.40;10.43;;;;;;;12.08;39.83;94363.16;5033743;28;20200;-74
2022/01/30 12:09:03;;;;;;;17.53;10.47;;;;;;;12.09;39.59;94354.53;5032071;28;20571;-73
2022/01/30 12:11:59;;;;;;;12.63;9.30;;;;;;;11.69;39.60;94291.88;5032483;28;20183;-71
2022/01/30 12:15:01;;;;;;;20.33;10.10;;;;;;;12.08;39.62;94358.03;5032505;28;20191;-72
2022/01/30 12:17:50;;;;;;;16.23;10.17;;;;;;;12.05;39.65;94343.00;5032382;28;20276;-77
2022/01/30 12:20:17;;;;;;;17.33;10.17;;;;;;;12.00;39.74;94337.50;5031998;28;20282;-75